Wind From: 11-12-2017 10:04 Until: 12-12-2017 06:00 warning for: Wind Level: Orange info button

Power and phone distribution networks may be disrupted for relatively long periods., Roofs and chimneys can be damaged. , Tree branches may break. , Vehicles can be deported. , Traffic may be disrupted, particularly on secondary roads in forest areas. Limit your trips. , Limit your speed in highway driving, especially if you drive a vehicle or hitch sensitive to wind. , Do not go for walks in forests or along the coast., In town, be vigilant against possible falling objects., Do not work on roofs and do not touch any electrical line fallen on the ground., Store or secure sensitive objects to wind or likely to be damaged., Always install power generators outside buildings. 


Meteo18 Weather Cam more information Meteo18 Weather Cam


Thunder radar more information blitzortung!


Rain radar more information rain snow radar


Visit our other weather sites:

Template documentation
and downloads

And another site



Weather Underground History page Text

Daily Summary for June 14, 2016 Units:  Metric    English   Both
« Previous Day
Next Day »
Daily Weekly Monthly Yearly Custom
  High: Low: Average:
Temperature: 19.2 °C 11.4 °C 14.7 °C
Dew Point: 14.6 °C 10.6 °C 12.8 °C
Humidity: 97 % 65 % 89 %
Wind Speed: 9.7 km/h 0.0 km/h 2.6 km/h
Wind Gust: 16.1 km/h - -
Wind:- - WSW
Pressure: 1005.0 hPa 1001.2 hPa -
Precipitation: 20.1 mm    
Historical Graphs
 
 
Tabular Data for June 14, 2016
Time Temperature Dew Point Pressure Wind Wind Speed Wind Gust Humidity Rainfall Rate (Hourly)
00:02 14.7 °C 14.1 °C 1004.3 hPa Calm     96 % 0.0 mm
00:12 14.8 °C 14.2 °C 1004.3 hPa Calm     96 % 1.0 mm
00:17 14.8 °C 14.2 °C 1004.3 hPa Calm     96 % 1.3 mm
00:32 14.9 °C 14.4 °C 1004.3 hPa Calm     97 % 3.3 mm
00:42 14.8 °C 14.3 °C 1003.9 hPa Calm   1.6 km/h 97 % 8.9 mm
00:47 14.9 °C 14.4 °C 1003.9 hPa WSW 3.2 km/h 4.8 km/h 97 % 9.9 mm
00:52 15.0 °C 14.5 °C 1003.9 hPa WSW 1.6 km/h 6.4 km/h 97 % 10.9 mm
00:57 15.1 °C 14.6 °C 1003.9 hPa WSW 1.6 km/h 8.0 km/h 97 % 10.9 mm
01:02 15.1 °C 14.6 °C 1003.9 hPa West 1.6 km/h 8.0 km/h 97 % 11.2 mm
01:12 15.1 °C 14.6 °C 1003.9 hPa WSW 4.8 km/h 8.0 km/h 97 % 10.4 mm
01:17 15.1 °C 14.6 °C 1003.9 hPa WSW 1.6 km/h 8.0 km/h 97 % 10.7 mm
01:22 15.1 °C 14.6 °C 1004.3 hPa SW 3.2 km/h 8.0 km/h 97 % 10.4 mm
01:27 15.0 °C 14.4 °C 1003.9 hPa SSW 1.6 km/h 8.0 km/h 96 % 9.1 mm
01:32 14.9 °C 14.3 °C 1003.9 hPa WSW 4.8 km/h 8.0 km/h 96 % 7.1 mm
01:37 14.9 °C 14.3 °C 1003.9 hPa SW 1.6 km/h 8.0 km/h 96 % 4.6 mm
01:42 14.9 °C 14.3 °C 1003.9 hPa SW 8.0 km/h 8.0 km/h 96 % 3.3 mm
01:47 14.9 °C 14.3 °C 1003.9 hPa Calm   11.3 km/h 96 % 2.3 mm
01:52 14.8 °C 14.2 °C 1003.9 hPa Calm   11.3 km/h 96 % 1.8 mm
01:57 14.8 °C 14.2 °C 1003.9 hPa West 3.2 km/h 11.3 km/h 96 % 1.5 mm
02:02 14.7 °C 14.1 °C 1003.9 hPa WSW 6.4 km/h 11.3 km/h 96 % 1.3 mm
02:07 14.6 °C 14.0 °C 1003.9 hPa WSW 4.8 km/h 11.3 km/h 96 % 1.3 mm
02:17 14.4 °C 13.8 °C 1003.6 hPa West 4.8 km/h 12.9 km/h 96 % 0.8 mm
02:22 14.4 °C 13.8 °C 1003.6 hPa WSW 4.8 km/h 12.9 km/h 96 % 0.5 mm
02:32 14.4 °C 13.8 °C 1003.6 hPa West 1.6 km/h 12.9 km/h 96 % 0.5 mm
02:37 14.4 °C 13.8 °C 1003.6 hPa WSW 4.8 km/h 14.5 km/h 96 % 0.8 mm
02:42 14.3 °C 13.7 °C 1003.6 hPa WSW 3.2 km/h 14.5 km/h 96 % 0.8 mm
02:47 14.3 °C 13.7 °C 1003.6 hPa WSW 8.0 km/h 14.5 km/h 96 % 0.5 mm
02:52 14.3 °C 13.7 °C 1003.3 hPa SW 6.4 km/h 11.3 km/h 96 % 0.5 mm
02:57 14.2 °C 13.7 °C 1003.3 hPa WSW 3.2 km/h 9.7 km/h 97 % 0.8 mm
03:07 14.2 °C 13.7 °C 1003.3 hPa WSW 4.8 km/h 9.7 km/h 97 % 0.8 mm
03:12 14.2 °C 13.7 °C 1003.3 hPa WSW 4.8 km/h 8.0 km/h 97 % 0.8 mm
03:17 14.1 °C 13.6 °C 1003.3 hPa SW 1.6 km/h 11.3 km/h 97 % 0.8 mm
03:22 14.1 °C 13.6 °C 1003.3 hPa West 1.6 km/h 11.3 km/h 97 % 0.8 mm
03:27 14.1 °C 13.6 °C 1003.3 hPa WSW 3.2 km/h 11.3 km/h 97 % 0.5 mm
03:32 14.1 °C 13.6 °C 1003.3 hPa SW 3.2 km/h 8.0 km/h 97 % 0.5 mm
03:42 14.1 °C 13.6 °C 1002.9 hPa West 3.2 km/h 12.9 km/h 97 % 0.5 mm
03:47 14.1 °C 13.6 °C 1002.9 hPa WSW 1.6 km/h 12.9 km/h 97 % 0.5 mm
03:52 14.0 °C 13.5 °C 1002.9 hPa WSW 1.6 km/h 11.3 km/h 97 % 0.3 mm
03:57 14.0 °C 13.5 °C 1002.9 hPa SW 3.2 km/h 9.7 km/h 97 % 0.3 mm
04:02 13.9 °C 13.4 °C 1002.9 hPa SW 1.6 km/h 12.9 km/h 97 % 0.5 mm
04:07 13.9 °C 13.4 °C 1002.9 hPa SW 1.6 km/h 12.9 km/h 97 % 0.5 mm
04:12 13.9 °C 13.4 °C 1002.9 hPa SW 1.6 km/h 12.9 km/h 97 % 0.5 mm
04:17 13.9 °C 13.4 °C 1002.9 hPa WSW 3.2 km/h 8.0 km/h 97 % 1.5 mm
04:22 13.8 °C 13.3 °C 1002.9 hPa WSW 3.2 km/h 8.0 km/h 97 % 2.3 mm
04:27 13.8 °C 13.3 °C 1002.6 hPa WSW 6.4 km/h 9.7 km/h 97 % 2.8 mm
04:32 13.8 °C 13.3 °C 1002.6 hPa SW 8.0 km/h 9.7 km/h 97 % 2.5 mm
04:42 13.8 °C 13.3 °C 1002.6 hPa WSW 1.6 km/h 8.0 km/h 97 % 2.5 mm
04:47 13.9 °C 13.4 °C 1002.9 hPa SW 6.4 km/h 8.0 km/h 97 % 2.5 mm
04:52 13.9 °C 13.4 °C 1002.9 hPa WSW 3.2 km/h 8.0 km/h 97 % 2.5 mm
04:57 13.9 °C 13.4 °C 1002.9 hPa WSW 6.4 km/h 8.0 km/h 97 % 2.3 mm
05:02 14.0 °C 13.5 °C 1002.9 hPa SW 4.8 km/h 8.0 km/h 97 % 2.3 mm
05:12 13.9 °C 13.4 °C 1002.9 hPa Calm   11.3 km/h 97 % 2.8 mm
05:17 13.8 °C 13.3 °C 1003.3 hPa North 3.2 km/h 11.3 km/h 97 % 1.3 mm
05:22 13.5 °C 12.9 °C 1003.3 hPa WSW 6.4 km/h 11.3 km/h 96 % 1.3 mm
05:32 13.0 °C 12.4 °C 1003.6 hPa West 1.6 km/h 12.9 km/h 96 % 1.0 mm
05:37 12.8 °C 12.0 °C 1003.6 hPa Calm   11.3 km/h 95 % 1.5 mm
05:42 12.6 °C 11.8 °C 1003.6 hPa SW 4.8 km/h 11.3 km/h 95 % 1.5 mm
05:47 12.4 °C 11.6 °C 1003.9 hPa WSW 3.2 km/h 11.3 km/h 95 % 1.5 mm
05:52 12.3 °C 11.5 °C 1003.9 hPa Calm   9.7 km/h 95 % 1.5 mm
05:57 12.2 °C 11.4 °C 1003.9 hPa SW 1.6 km/h 14.5 km/h 95 % 1.5 mm
06:02 12.2 °C 11.6 °C 1003.9 hPa Calm   14.5 km/h 96 % 1.5 mm
06:12 12.2 °C 11.6 °C 1004.3 hPa Calm   14.5 km/h 96 % 1.3 mm
06:17 12.2 °C 11.6 °C 1004.3 hPa Calm   8.0 km/h 96 % 1.3 mm
06:22 12.1 °C 11.3 °C 1004.6 hPa Calm   6.4 km/h 95 % 0.8 mm
06:27 12.0 °C 11.4 °C 1004.3 hPa SW 1.6 km/h 6.4 km/h 96 % 0.8 mm
06:32 12.0 °C 11.4 °C 1004.6 hPa Calm   9.7 km/h 96 % 0.5 mm
06:37 11.9 °C 11.3 °C 1004.6 hPa Calm   9.7 km/h 96 % 0.5 mm
06:42 11.9 °C 11.3 °C 1004.6 hPa Calm   8.0 km/h 96 % 0.5 mm
06:47 11.9 °C 11.3 °C 1004.6 hPa Calm   8.0 km/h 96 % 0.5 mm
06:52 11.9 °C 11.3 °C 1004.6 hPa Calm   6.4 km/h 96 % 0.5 mm
06:57 11.9 °C 11.3 °C 1004.6 hPa Calm   4.8 km/h 96 % 0.5 mm
07:02 11.9 °C 11.3 °C 1004.6 hPa West 1.6 km/h 4.8 km/h 96 % 0.5 mm
07:07 11.9 °C 11.3 °C 1004.6 hPa SSW 1.6 km/h 6.4 km/h 96 % 0.5 mm
07:12 12.0 °C 11.4 °C 1004.6 hPa Calm   6.4 km/h 96 % 0.5 mm
07:17 12.1 °C 11.5 °C 1004.6 hPa SW 4.8 km/h 6.4 km/h 96 % 0.5 mm
07:22 12.1 °C 11.5 °C 1004.6 hPa ESE 1.6 km/h 6.4 km/h 96 % 0.5 mm
07:32 12.2 °C 11.6 °C 1004.6 hPa Calm   4.8 km/h 96 % 0.5 mm
07:37 12.2 °C 11.6 °C 1004.6 hPa Calm   4.8 km/h 96 % 0.0 mm
07:42 12.3 °C 11.7 °C 1004.6 hPa Calm   4.8 km/h 96 % 0.0 mm
07:47 12.5 °C 11.9 °C 1004.6 hPa ESE 1.6 km/h 3.2 km/h 96 % 0.0 mm
07:52 12.5 °C 11.9 °C 1004.6 hPa Calm   3.2 km/h 96 % 0.0 mm
07:57 12.6 °C 12.0 °C 1004.6 hPa ESE 1.6 km/h 6.4 km/h 96 % 0.0 mm
08:02 12.7 °C 12.1 °C 1004.6 hPa SW 1.6 km/h 6.4 km/h 96 % 0.0 mm
08:07 12.8 °C 12.2 °C 1004.6 hPa Calm   4.8 km/h 96 % 0.0 mm
08:12 12.9 °C 12.1 °C 1004.6 hPa Calm   4.8 km/h 95 % 0.0 mm
08:17 12.9 °C 12.1 °C 1004.6 hPa South 1.6 km/h 4.8 km/h 95 % 0.0 mm
08:22 13.0 °C 12.2 °C 1004.6 hPa Calm   4.8 km/h 95 % 0.0 mm
08:32 13.2 °C 12.4 °C 1004.6 hPa WSW 3.2 km/h 4.8 km/h 95 % 0.0 mm
08:37 13.2 °C 12.4 °C 1004.6 hPa Calm   6.4 km/h 95 % 0.0 mm
08:42 13.3 °C 12.5 °C 1004.6 hPa West 1.6 km/h 6.4 km/h 95 % 0.0 mm
08:47 13.3 °C 12.4 °C 1005.0 hPa Calm   6.4 km/h 94 % 0.0 mm
08:52 13.3 °C 12.4 °C 1005.0 hPa SW 3.2 km/h 6.4 km/h 94 % 0.0 mm
08:57 13.3 °C 12.4 °C 1005.0 hPa WSW 1.6 km/h 6.4 km/h 94 % 0.0 mm
09:02 13.4 °C 12.5 °C 1005.0 hPa WSW 1.6 km/h 6.4 km/h 94 % 0.0 mm
09:07 13.5 °C 12.6 °C 1005.0 hPa Calm   4.8 km/h 94 % 0.0 mm
09:12 13.6 °C 12.5 °C 1005.0 hPa Calm   6.4 km/h 93 % 0.0 mm
09:17 13.7 °C 12.6 °C 1005.0 hPa Calm   6.4 km/h 93 % 0.0 mm
09:22 13.8 °C 12.7 °C 1005.0 hPa WSW 3.2 km/h 6.4 km/h 93 % 0.0 mm
09:27 13.8 °C 12.5 °C 1005.0 hPa WSW 4.8 km/h 8.0 km/h 92 % 0.0 mm
09:32 13.8 °C 12.5 °C 1005.0 hPa SSW 3.2 km/h 8.0 km/h 92 % 0.0 mm
10:17 14.8 °C 13.0 °C 1005.0 hPa NNW 1.6 km/h 11.3 km/h 89 % 0.0 mm
10:57 16.4 °C 13.5 °C 1005.0 hPa Calm   9.7 km/h 83 % 0.0 mm
11:02 16.2 °C 13.3 °C 1005.0 hPa Calm   8.0 km/h 83 % 0.0 mm
11:12 15.9 °C 13.0 °C 1004.6 hPa WSW 1.6 km/h 6.4 km/h 83 % 0.0 mm
11:17 15.7 °C 12.8 °C 1004.6 hPa WSW 1.6 km/h 8.0 km/h 83 % 0.0 mm
11:22 15.6 °C 12.7 °C 1004.6 hPa WSW 3.2 km/h 8.0 km/h 83 % 0.0 mm
11:37 15.5 °C 13.0 °C 1004.6 hPa WNW 4.8 km/h 16.1 km/h 85 % 0.0 mm
11:42 15.1 °C 12.6 °C 1004.6 hPa SW 3.2 km/h 9.7 km/h 85 % 0.0 mm
11:52 14.7 °C 12.2 °C 1004.6 hPa WSW 6.4 km/h 14.5 km/h 85 % 0.0 mm
11:57 14.6 °C 12.6 °C 1004.6 hPa WSW 4.8 km/h 14.5 km/h 88 % 0.0 mm
12:02 14.6 °C 12.6 °C 1004.6 hPa West 8.0 km/h 14.5 km/h 88 % 0.0 mm
12:12 14.7 °C 12.7 °C 1004.6 hPa West 4.8 km/h 12.9 km/h 88 % 0.0 mm
12:17 15.0 °C 12.9 °C 1004.6 hPa WSW 3.2 km/h 12.9 km/h 87 % 0.0 mm
12:22 15.5 °C 13.3 °C 1004.6 hPa WSW 4.8 km/h 11.3 km/h 87 % 0.0 mm
12:32 16.2 °C 13.3 °C 1004.3 hPa West 1.6 km/h 14.5 km/h 83 % 0.0 mm
12:42 17.2 °C 13.7 °C 1004.3 hPa WSW 1.6 km/h 11.3 km/h 80 % 0.0 mm
12:52 16.7 °C 13.2 °C 1004.3 hPa WSW 1.6 km/h 11.3 km/h 80 % 0.0 mm
12:57 16.5 °C 13.6 °C 1004.3 hPa WSW 6.4 km/h 11.3 km/h 83 % 0.0 mm
13:02 16.5 °C 13.8 °C 1003.9 hPa SW 4.8 km/h 9.7 km/h 84 % 0.0 mm
13:07 16.8 °C 13.9 °C 1004.3 hPa WSW 3.2 km/h 9.7 km/h 83 % 0.0 mm
13:12 16.8 °C 13.9 °C 1004.3 hPa Calm   9.7 km/h 83 % 0.0 mm
13:17 16.8 °C 13.9 °C 1004.3 hPa Calm   11.3 km/h 83 % 0.0 mm
13:22 16.8 °C 13.3 °C 1003.9 hPa WNW 3.2 km/h 11.3 km/h 80 % 0.0 mm
13:27 16.8 °C 13.9 °C 1003.9 hPa Calm   12.9 km/h 83 % 0.0 mm
13:32 17.6 °C 14.3 °C 1003.9 hPa WSW 3.2 km/h 12.9 km/h 81 % 0.0 mm
13:37 18.0 °C 14.3 °C 1003.9 hPa West 3.2 km/h 12.9 km/h 79 % 0.0 mm
13:42 18.1 °C 14.2 °C 1003.9 hPa WSW 4.8 km/h 9.7 km/h 78 % 0.0 mm
13:52 18.4 °C 14.3 °C 1003.9 hPa WSW 4.8 km/h 12.9 km/h 77 % 0.0 mm
14:02 19.1 °C 13.9 °C 1003.9 hPa WSW 4.8 km/h 12.9 km/h 72 % 0.0 mm
14:12 18.8 °C 13.6 °C 1003.6 hPa WSW 9.7 km/h 16.1 km/h 72 % 0.0 mm
14:17 19.0 °C 13.6 °C 1003.6 hPa West 1.6 km/h 16.1 km/h 71 % 0.0 mm
14:22 18.7 °C 13.3 °C 1003.6 hPa West 4.8 km/h 16.1 km/h 71 % 0.0 mm
14:32 18.4 °C 12.8 °C 1003.3 hPa West 3.2 km/h 14.5 km/h 70 % 0.0 mm
14:37 18.3 °C 13.0 °C 1003.3 hPa SW 3.2 km/h 11.3 km/h 71 % 0.0 mm
14:42 18.1 °C 13.0 °C 1003.3 hPa West 6.4 km/h 12.9 km/h 72 % 0.0 mm
14:47 18.4 °C 14.1 °C 1003.3 hPa West 8.0 km/h 12.9 km/h 76 % 0.0 mm
14:52 18.3 °C 12.7 °C 1002.9 hPa Calm   12.9 km/h 70 % 0.0 mm
15:02 18.2 °C 13.5 °C 1003.3 hPa SW 1.6 km/h 12.9 km/h 74 % 0.0 mm
15:07 17.9 °C 13.0 °C 1003.3 hPa WSW 3.2 km/h 12.9 km/h 73 % 0.0 mm
15:12 17.8 °C 12.9 °C 1003.3 hPa SW 3.2 km/h 14.5 km/h 73 % 0.0 mm
15:17 17.8 °C 12.9 °C 1002.9 hPa SW 4.8 km/h 14.5 km/h 73 % 0.0 mm
15:22 17.9 °C 12.8 °C 1002.9 hPa West 9.7 km/h 14.5 km/h 72 % 0.0 mm
15:32 18.2 °C 12.6 °C 1002.9 hPa SW 3.2 km/h 12.9 km/h 70 % 0.0 mm
15:47 18.0 °C 14.1 °C 1002.9 hPa WSW 4.8 km/h 14.5 km/h 78 % 0.0 mm
15:52 17.9 °C 13.6 °C 1002.9 hPa West 8.0 km/h 14.5 km/h 76 % 0.0 mm
15:57 17.9 °C 14.0 °C 1002.9 hPa SW 6.4 km/h 14.5 km/h 78 % 0.0 mm
16:02 17.8 °C 13.5 °C 1002.9 hPa SW 8.0 km/h 14.5 km/h 76 % 0.0 mm
16:12 18.4 °C 14.1 °C 1002.6 hPa WSW 9.7 km/h 14.5 km/h 76 % 0.0 mm
16:17 18.6 °C 14.1 °C 1002.6 hPa West 4.8 km/h 12.9 km/h 75 % 0.0 mm
16:32 17.3 °C 13.4 °C 1002.6 hPa WSW 4.8 km/h 14.5 km/h 78 % 0.0 mm
16:42 17.4 °C 13.7 °C 1002.3 hPa Calm   12.9 km/h 79 % 0.0 mm
16:52 17.8 °C 13.9 °C 1002.3 hPa SSW 3.2 km/h 9.7 km/h 78 % 0.0 mm
16:57 17.8 °C 13.5 °C 1002.3 hPa WSW 4.8 km/h 9.7 km/h 76 % 0.0 mm
17:02 17.8 °C 13.1 °C 1002.3 hPa WSW 1.6 km/h 9.7 km/h 74 % 0.0 mm
17:07 17.8 °C 12.9 °C 1002.3 hPa WSW 6.4 km/h 9.7 km/h 73 % 0.0 mm
17:12 17.7 °C 12.8 °C 1002.3 hPa WSW 8.0 km/h 14.5 km/h 73 % 0.0 mm
17:17 17.4 °C 12.5 °C 1002.3 hPa WSW 3.2 km/h 14.5 km/h 73 % 0.0 mm
17:22 17.4 °C 12.9 °C 1002.3 hPa Calm   14.5 km/h 75 % 0.0 mm
17:37 17.4 °C 12.9 °C 1001.9 hPa WSW 4.8 km/h 8.0 km/h 75 % 0.0 mm
17:42 17.6 °C 13.3 °C 1001.9 hPa Calm   8.0 km/h 76 % 0.0 mm
17:47 17.7 °C 13.4 °C 1001.9 hPa WSW 3.2 km/h 8.0 km/h 76 % 0.0 mm
17:52 17.6 °C 12.5 °C 1001.9 hPa West 3.2 km/h 12.9 km/h 72 % 0.0 mm
17:57 17.9 °C 13.0 °C 1001.9 hPa West 1.6 km/h 12.9 km/h 73 % 0.0 mm
18:02 18.8 °C 14.1 °C 1001.9 hPa WSW 3.2 km/h 12.9 km/h 74 % 0.0 mm
18:12 19.2 °C 12.5 °C 1001.6 hPa SW 4.8 km/h 9.7 km/h 65 % 0.0 mm
18:17 18.7 °C 12.2 °C 1001.6 hPa WSW 4.8 km/h 9.7 km/h 66 % 0.0 mm
18:22 17.9 °C 11.9 °C 1001.6 hPa WSW 3.2 km/h 12.9 km/h 68 % 0.0 mm
18:27 17.5 °C 12.4 °C 1001.9 hPa WSW 4.8 km/h 14.5 km/h 72 % 0.0 mm
18:32 17.2 °C 12.5 °C 1001.6 hPa SW 4.8 km/h 14.5 km/h 74 % 0.0 mm
18:42 17.0 °C 12.3 °C 1001.6 hPa WSW 6.4 km/h 9.7 km/h 74 % 0.0 mm
18:47 17.0 °C 12.7 °C 1001.6 hPa Calm   12.9 km/h 76 % 0.0 mm
18:52 16.9 °C 12.8 °C 1001.6 hPa SW 3.2 km/h 12.9 km/h 77 % 0.0 mm
19:02 16.5 °C 12.3 °C 1001.6 hPa SW 4.8 km/h 14.5 km/h 76 % 0.0 mm
19:07 16.3 °C 12.3 °C 1001.6 hPa WSW 1.6 km/h 14.5 km/h 77 % 0.0 mm
19:12 16.0 °C 12.7 °C 1001.6 hPa WSW 4.8 km/h 14.5 km/h 81 % 0.0 mm
19:22 15.2 °C 12.9 °C 1001.9 hPa West 9.7 km/h 11.3 km/h 86 % 0.5 mm
19:27 14.7 °C 12.4 °C 1001.9 hPa West 4.8 km/h 12.9 km/h 86 % 0.5 mm
19:32 14.4 °C 12.3 °C 1001.9 hPa SW 1.6 km/h 12.9 km/h 87 % 0.5 mm
19:37 14.3 °C 12.3 °C 1001.9 hPa SW 6.4 km/h 12.9 km/h 88 % 0.5 mm
19:42 14.4 °C 12.8 °C 1001.9 hPa WSW 3.2 km/h 9.7 km/h 90 % 0.5 mm
19:47 14.7 °C 13.2 °C 1001.6 hPa WSW 1.6 km/h 9.7 km/h 91 % 0.5 mm
19:52 14.7 °C 12.9 °C 1001.6 hPa WSW 1.6 km/h 9.7 km/h 89 % 0.5 mm
19:57 14.7 °C 12.7 °C 1001.6 hPa WSW 3.2 km/h 9.7 km/h 88 % 0.5 mm
20:02 14.6 °C 12.6 °C 1001.6 hPa WSW 8.0 km/h 9.7 km/h 88 % 0.5 mm
20:12 14.2 °C 12.2 °C 1001.6 hPa WSW 3.2 km/h 9.7 km/h 88 % 0.5 mm
20:17 14.2 °C 12.2 °C 1001.6 hPa West 3.2 km/h 9.7 km/h 88 % 0.0 mm
20:22 14.1 °C 12.3 °C 1001.6 hPa WSW 1.6 km/h 9.7 km/h 89 % 0.0 mm
20:32 13.8 °C 12.0 °C 1001.9 hPa WSW 3.2 km/h 9.7 km/h 89 % 0.0 mm
20:37 13.8 °C 12.2 °C 1001.9 hPa SW 1.6 km/h 9.7 km/h 90 % 0.0 mm
20:42 13.8 °C 12.4 °C 1001.9 hPa Calm   8.0 km/h 91 % 0.0 mm
20:47 13.8 °C 12.4 °C 1001.9 hPa Calm   8.0 km/h 91 % 0.0 mm
20:52 13.7 °C 12.4 °C 1001.9 hPa SW 1.6 km/h 8.0 km/h 92 % 0.0 mm
20:57 13.7 °C 12.4 °C 1002.3 hPa WSW 1.6 km/h 6.4 km/h 92 % 0.0 mm
21:02 13.7 °C 12.4 °C 1002.3 hPa SW 1.6 km/h 6.4 km/h 92 % 0.3 mm
21:12 13.6 °C 12.5 °C 1002.3 hPa WSW 1.6 km/h 8.0 km/h 93 % 0.5 mm
21:17 13.5 °C 12.4 °C 1001.9 hPa WSW 4.8 km/h 8.0 km/h 93 % 0.5 mm
21:22 13.3 °C 12.0 °C 1001.9 hPa WSW 1.6 km/h 9.7 km/h 92 % 1.0 mm
21:27 13.1 °C 11.8 °C 1001.9 hPa WSW 1.6 km/h 9.7 km/h 92 % 1.0 mm
21:32 13.1 °C 12.0 °C 1001.9 hPa Calm   6.4 km/h 93 % 1.0 mm
21:37 13.1 °C 12.0 °C 1001.9 hPa Calm   4.8 km/h 93 % 1.0 mm
21:42 12.9 °C 11.8 °C 1001.9 hPa Calm   4.8 km/h 93 % 1.0 mm
21:47 12.7 °C 11.6 °C 1001.9 hPa Calm   4.8 km/h 93 % 1.0 mm
21:52 12.6 °C 11.7 °C 1001.9 hPa Calm   4.8 km/h 94 % 1.0 mm
21:57 12.6 °C 11.7 °C 1001.9 hPa Calm   1.6 km/h 94 % 0.8 mm
22:02 12.4 °C 11.5 °C 1001.9 hPa Calm   1.6 km/h 94 % 0.8 mm
22:12 12.0 °C 11.1 °C 1001.9 hPa Calm   1.6 km/h 94 % 0.5 mm
22:22 11.8 °C 10.9 °C 1001.9 hPa Calm   1.6 km/h 94 % 0.0 mm
22:32 11.6 °C 10.8 °C 1001.9 hPa Calm   1.6 km/h 95 % 0.0 mm
22:37 11.6 °C 10.8 °C 1001.6 hPa Calm   1.6 km/h 95 % 0.0 mm
22:42 11.5 °C 10.7 °C 1001.6 hPa Calm   1.6 km/h 95 % 0.0 mm
22:47 11.5 °C 10.7 °C 1001.6 hPa Calm   1.6 km/h 95 % 0.0 mm
22:52 11.4 °C 10.6 °C 1001.6 hPa Calm     95 % 0.0 mm
23:02 11.5 °C 10.7 °C 1001.6 hPa Calm     95 % 0.0 mm
23:12 11.6 °C 11.0 °C 1001.6 hPa Calm     96 % 0.0 mm
23:17 11.7 °C 11.1 °C 1001.6 hPa Calm     96 % 0.0 mm
23:22 11.7 °C 11.1 °C 1001.6 hPa Calm     96 % 0.0 mm
23:32 11.9 °C 11.3 °C 1001.6 hPa Calm     96 % 0.0 mm
23:42 12.1 °C 11.5 °C 1001.2 hPa Calm     96 % 0.3 mm
23:52 12.2 °C 11.7 °C 1001.2 hPa Calm     97 % 0.3 mm
23:57 12.3 °C 11.8 °C 1001.6 hPa Calm     97 % 0.3 mm
Meteo18
Compliments of Weather Underground - 4 mb

Script developed by  Jim McMurry - jmcmurry@mwt.net Adapted for the template by  Wim van der Kuil - Leuven-Template.eu

You find our weather info also at:

European Weather Network

Weather Underground

Equipment we use:

Weather-station
Davis Vue

Weather-program
Meteohub

Weather-server
Raspberry PI 2 B+

Provider
1 and 1

Davis Vue

Meteohub

Raspberry PI 2 B+

1 and 1